Overview Statistics Trail Chart Weather Telemetry Raw packets
 

This is the latest recevied weather packets stored in our database for station/object EA5JMY-10. If no packets are shown the sender has not sent any weather packets the latest 10 day(s).

<< 1 2 3 4 5 >>
Time Temp. Humidity Pressure Rain* Wind** Luminosity Snow
1788602498 39.44° C 33% 1023.4 hPa - - - -
1788601598 36.67° C 38% 1023.4 hPa - - - -
1788600698 36.11° C 40% 1023.2 hPa - - - -
1788599798 34.44° C 42% 1023.1 hPa - - - -
1788598898 32.78° C 48% 1022.9 hPa - - - -
1788597998 33.33° C 46% 1022.9 hPa - - - -
1788597097 33.33° C 43% 1022.6 hPa - - - -
1788596197 36.67° C 32% 1022.4 hPa - - - -
1788595297 41.11° C 28% 1022.3 hPa - - - -
1788594397 40° C 29% 1022.1 hPa - - - -
1788593497 40° C 30% 1021.9 hPa - - - -
1788592597 38.33° C 33% 1022 hPa - - - -
1788591697 33.89° C 43% 1022 hPa - - - -
1788590797 29.44° C 54% 1022 hPa - - - -
1788589896 31.11° C 49% 1022.2 hPa - - - -
1788588996 30° C 56% 1022.2 hPa - - - -
1788588096 28.89° C 72% 1022 hPa - - - -
1788587196 25.56° C 79% 1022.1 hPa - - - -
1788586296 24.44° C 80% 1022 hPa - - - -
1788585396 25° C 79% 1021.9 hPa - - - -
1788584496 25° C 80% 1021.9 hPa - - - -
1788583596 25.56° C 80% 1021.8 hPa - - - -
1788582696 25.56° C 80% 1021.8 hPa - - - -
1788581823 25.56° C 81% 1021.6 hPa - - - -
1788580895 25.56° C 80% 1021.6 hPa - - - -

* Rain since midnight (hover to see other rain measurements)
** Current wind speed in m/s (hover to see current wind gust speed)